createdAt,value
2022-12-04T00:01:12.411Z,26.20
2022-12-04T00:03:39.297Z,28.80
2022-12-04T00:06:10.057Z,28.27
2022-12-04T00:08:37.241Z,24.83
2022-12-04T00:11:05.176Z,28.00
2022-12-04T00:13:33.078Z,27.55
2022-12-04T00:16:00.605Z,29.25
2022-12-04T00:18:27.719Z,28.77
2022-12-04T00:20:54.492Z,28.60
2022-12-04T00:23:21.045Z,26.05
2022-12-04T00:25:48.707Z,29.85
2022-12-04T00:28:17.370Z,27.02
2022-12-04T00:30:46.859Z,25.88
2022-12-04T00:33:13.929Z,24.73
2022-12-04T00:35:40.927Z,26.65
2022-12-04T00:38:07.483Z,23.95
2022-12-04T00:40:34.332Z,28.08
2022-12-04T00:43:00.901Z,25.17
2022-12-04T00:45:27.712Z,25.27
2022-12-04T00:47:54.667Z,24.55
2022-12-04T00:50:21.927Z,25.70
2022-12-04T00:52:48.449Z,26.73
2022-12-04T00:55:15.118Z,27.63
2022-12-04T00:57:41.735Z,25.67
2022-12-04T01:00:27.434Z,25.52
2022-12-04T01:02:54.035Z,27.67
2022-12-04T01:05:20.802Z,26.02
2022-12-04T01:07:47.370Z,25.42
2022-12-04T01:10:14.273Z,26.55
2022-12-04T01:12:40.786Z,25.33
2022-12-04T01:15:07.870Z,27.85
2022-12-04T01:17:34.364Z,26.85
2022-12-04T01:20:00.858Z,25.33
2022-12-04T01:22:27.354Z,26.13
2022-12-04T01:24:57.475Z,27.27
2022-12-04T01:27:23.977Z,26.77
2022-12-04T01:29:50.469Z,28.17
2022-12-04T01:32:17.098Z,27.73
2022-12-04T01:34:43.704Z,26.70
2022-12-04T01:37:10.250Z,26.88
2022-12-04T01:39:37.510Z,27.58
2022-12-04T01:42:04.936Z,27.55
2022-12-04T01:44:32.398Z,25.10
2022-12-04T01:47:00.431Z,26.42
2022-12-04T01:49:46.185Z,26.45
2022-12-04T01:52:18.168Z,26.30
2022-12-04T01:54:47.417Z,26.35
2022-12-04T01:57:16.701Z,27.65
2022-12-04T01:59:50.147Z,25.30
2022-12-04T02:02:22.384Z,27.13
2022-12-04T02:04:50.637Z,25.88
2022-12-04T02:07:17.292Z,25.73
2022-12-04T02:09:45.479Z,26.42
2022-12-04T02:12:36.087Z,26.23
2022-12-04T02:15:10.881Z,26.45
2022-12-04T02:18:08.055Z,27.85
2022-12-04T02:20:46.454Z,26.52
2022-12-04T02:23:43.390Z,25.70
2022-12-04T02:26:38.796Z,26.52
2022-12-04T02:29:20.433Z,27.70
2022-12-04T02:31:59.495Z,27.58
2022-12-04T02:34:32.785Z,28.25
2022-12-04T02:37:08.513Z,27.30
2022-12-04T02:39:41.364Z,27.48
2022-12-04T02:42:20.530Z,26.73
2022-12-04T02:44:57.970Z,26.60
2022-12-04T02:47:26.140Z,27.23
2022-12-04T02:50:05.458Z,26.45
2022-12-04T02:52:36.803Z,26.98
2022-12-04T02:55:10.705Z,28.80
2022-12-04T02:57:44.151Z,28.30
2022-12-04T03:00:11.716Z,28.17
2022-12-04T03:02:45.450Z,28.60
2022-12-04T03:05:16.739Z,26.42
2022-12-04T03:07:50.579Z,26.83
2022-12-04T03:10:30.095Z,29.67
2022-12-04T03:13:20.261Z,27.45
2022-12-04T03:15:53.773Z,26.60
2022-12-04T03:18:27.453Z,28.23
2022-12-04T03:21:01.134Z,27.73
2022-12-04T03:23:37.742Z,28.90
2022-12-04T03:26:16.675Z,29.45
2022-12-04T03:29:28.373Z,27.65
2022-12-04T03:32:07.982Z,27.70
2022-12-04T03:34:53.094Z,27.88
2022-12-04T03:37:28.866Z,29.13
2022-12-04T03:40:00.602Z,29.00
2022-12-04T03:42:35.765Z,26.15
2022-12-04T03:45:09.493Z,27.73
2022-12-04T03:47:43.046Z,29.38
2022-12-04T03:50:17.280Z,28.63
2022-12-04T03:52:54.282Z,26.27
2022-12-04T03:58:03.127Z,29.35
2022-12-04T04:00:32.420Z,29.13
2022-12-04T04:03:25.844Z,28.42
2022-12-04T04:05:56.401Z,29.77
2022-12-04T04:08:33.735Z,31.08
2022-12-04T04:11:13.613Z,30.10
2022-12-04T04:14:06.391Z,27.90
2022-12-04T04:16:56.031Z,28.83
2022-12-04T04:19:44.056Z,31.85
2022-12-04T04:22:28.920Z,29.08
2022-12-04T04:25:07.251Z,30.90
2022-12-04T04:27:33.795Z,27.80
2022-12-04T04:30:00.457Z,29.77
2022-12-04T04:33:02.155Z,30.67
2022-12-04T04:35:40.858Z,28.98
2022-12-04T04:38:27.725Z,29.38
2022-12-04T04:41:01.377Z,31.02
2022-12-04T04:43:40.171Z,30.10
2022-12-04T04:46:30.080Z,28.60
2022-12-04T04:49:01.099Z,27.77
2022-12-04T04:51:31.135Z,27.35
2022-12-04T04:54:00.704Z,31.45
2022-12-04T04:56:27.643Z,29.23
2022-12-04T04:58:54.175Z,26.95
2022-12-04T05:01:24.469Z,27.75
2022-12-04T05:03:51.027Z,26.35
2022-12-04T05:06:17.638Z,25.75
2022-12-04T05:08:44.360Z,38.65
2022-12-04T05:11:13.733Z,33.55
2022-12-04T05:13:40.979Z,27.15
2022-12-04T05:16:11.290Z,27.45
2022-12-04T05:18:38.159Z,28.10
2022-12-04T05:21:09.425Z,28.42
2022-12-04T05:23:35.971Z,27.60
2022-12-04T05:26:04.820Z,28.20
2022-12-04T05:28:31.654Z,28.55
2022-12-04T05:31:00.706Z,27.92
2022-12-04T05:33:27.639Z,26.95
2022-12-04T05:35:58.968Z,30.42
2022-12-04T05:38:25.932Z,30.17
2022-12-04T05:40:52.843Z,28.45
2022-12-04T05:43:19.792Z,27.45
2022-12-04T05:45:46.321Z,28.27
2022-12-04T05:48:12.817Z,27.40
2022-12-04T05:50:39.395Z,28.85
2022-12-04T05:53:05.871Z,26.48
2022-12-04T05:55:32.357Z,26.20
2022-12-04T05:57:59.163Z,27.45
2022-12-04T06:00:25.937Z,28.52
2022-12-04T06:02:52.610Z,25.63
2022-12-04T06:05:19.296Z,26.48
2022-12-04T06:07:45.900Z,27.33
2022-12-04T06:10:12.445Z,30.02
2022-12-04T06:12:38.979Z,26.38
2022-12-04T06:15:06.129Z,27.58
2022-12-04T06:17:32.628Z,29.67
2022-12-04T06:20:00.237Z,27.77
2022-12-04T06:22:27.028Z,27.90
2022-12-04T06:24:53.645Z,26.30
2022-12-04T06:27:28.509Z,25.60
2022-12-04T06:29:55.703Z,28.73
2022-12-04T06:32:22.591Z,26.33
2022-12-04T06:34:53.643Z,24.92
2022-12-04T06:37:24.883Z,27.88
2022-12-04T06:39:51.415Z,25.98
2022-12-04T06:42:18.335Z,27.50
2022-12-04T06:44:44.909Z,25.70
2022-12-04T06:47:11.477Z,25.88
2022-12-04T06:49:38.009Z,28.23
2022-12-04T06:52:04.587Z,28.02
2022-12-04T06:54:31.179Z,26.08
2022-12-04T06:56:57.729Z,26.48
2022-12-04T06:59:24.286Z,28.13
2022-12-04T07:01:50.921Z,27.98
2022-12-04T07:04:17.501Z,25.73
2022-12-04T07:06:44.023Z,26.85
2022-12-04T07:09:13.748Z,30.25
2022-12-04T07:11:41.615Z,27.40
2022-12-04T07:14:08.697Z,26.52
2022-12-04T07:16:40.772Z,25.75
2022-12-04T07:19:14.214Z,24.85
2022-12-04T07:21:42.118Z,25.58
2022-12-04T07:24:15.863Z,25.52
2022-12-04T07:26:42.671Z,26.80
2022-12-04T07:29:10.584Z,23.42
2022-12-04T07:31:38.169Z,23.40
2022-12-04T07:34:04.769Z,23.40
2022-12-04T07:36:31.318Z,22.40
2022-12-04T07:38:57.921Z,21.60
2022-12-04T07:41:24.657Z,24.55
2022-12-04T07:43:51.273Z,21.42
2022-12-04T07:46:20.783Z,21.58
2022-12-04T07:48:47.448Z,21.35
2022-12-04T07:51:17.580Z,22.25
2022-12-04T07:53:44.691Z,21.35
2022-12-04T07:56:12.621Z,22.60
2022-12-04T07:58:40.082Z,22.27
2022-12-04T08:01:12.914Z,22.52
2022-12-04T08:03:46.749Z,21.90
2022-12-04T08:06:14.837Z,21.40
2022-12-04T08:08:41.569Z,22.30
2022-12-04T08:11:10.210Z,21.55
2022-12-04T08:13:36.828Z,24.77
2022-12-04T08:16:08.485Z,25.20
2022-12-04T08:18:35.446Z,21.30
2022-12-04T08:21:07.092Z,20.40
2022-12-04T08:23:34.606Z,25.15
2022-12-04T08:26:01.624Z,24.33
2022-12-04T08:28:29.023Z,24.50
2022-12-04T08:30:55.997Z,22.42
2022-12-04T08:33:22.550Z,21.73
2022-12-04T08:35:49.120Z,20.48
2022-12-04T08:38:15.666Z,22.30
2022-12-04T08:40:42.490Z,23.02
2022-12-04T08:43:08.976Z,20.70
2022-12-04T08:45:35.573Z,21.38
2022-12-04T08:48:02.209Z,21.17
2022-12-04T08:50:28.769Z,21.42
2022-12-04T08:52:55.304Z,21.77
2022-12-04T08:55:21.814Z,20.98
2022-12-04T08:57:50.170Z,22.23
2022-12-04T09:00:16.970Z,21.70
2022-12-04T09:02:43.473Z,21.42
2022-12-04T09:05:10.014Z,19.70
2022-12-04T09:07:36.569Z,22.77
2022-12-04T09:10:03.452Z,22.95
2022-12-04T09:12:29.923Z,21.20
2022-12-04T09:14:56.441Z,21.42
2022-12-04T09:17:23.043Z,24.02
2022-12-04T09:19:50.193Z,22.08
2022-12-04T09:22:16.720Z,22.70
2022-12-04T09:24:43.370Z,21.80
2022-12-04T09:27:14.446Z,21.73
2022-12-04T09:29:41.562Z,25.90
2022-12-04T09:32:08.112Z,23.48
2022-12-04T09:34:34.761Z,23.55
2022-12-04T09:37:02.219Z,23.05
2022-12-04T09:39:29.676Z,20.77
2022-12-04T09:42:08.106Z,23.75
2022-12-04T09:44:45.645Z,21.38
2022-12-04T09:47:22.727Z,21.88
2022-12-04T09:49:56.742Z,22.85
2022-12-04T09:52:36.542Z,21.30
2022-12-04T09:55:05.201Z,21.65
2022-12-04T09:57:38.962Z,20.50
2022-12-04T10:00:07.018Z,21.83
2022-12-04T10:02:43.241Z,20.23
2022-12-04T10:05:28.403Z,20.45
2022-12-04T10:08:09.423Z,20.90
2022-12-04T10:10:44.183Z,21.25
2022-12-04T10:13:19.535Z,19.85
2022-12-04T10:16:10.576Z,20.42
2022-12-04T10:19:08.129Z,19.33
2022-12-04T10:21:58.002Z,19.13
2022-12-04T10:24:46.842Z,20.05
2022-12-04T10:27:40.651Z,18.58
2022-12-04T10:30:20.569Z,19.08
2022-12-04T10:32:50.354Z,20.30
2022-12-04T10:35:32.045Z,20.17
2022-12-04T10:38:03.894Z,18.52
2022-12-04T10:40:43.978Z,20.90
2022-12-04T10:43:31.164Z,19.10
2022-12-04T10:45:58.500Z,19.00
2022-12-04T10:48:40.123Z,20.52
2022-12-04T10:51:10.051Z,19.30
2022-12-04T10:53:37.877Z,17.20
2022-12-04T10:56:17.910Z,20.83
2022-12-04T10:58:59.421Z,18.20
2022-12-04T11:01:28.610Z,19.02
2022-12-04T11:04:01.786Z,18.33
2022-12-04T11:06:29.682Z,18.15
2022-12-04T11:08:57.306Z,18.67
2022-12-04T11:11:33.324Z,18.60
2022-12-04T11:14:05.560Z,16.93
2022-12-04T11:33:38.713Z,17.40
2022-12-04T11:36:26.797Z,19.92
2022-12-04T11:39:03.172Z,18.90
2022-12-04T11:41:32.245Z,17.20
2022-12-04T11:44:00.514Z,17.08
2022-12-04T11:46:33.929Z,16.38
2022-12-04T11:49:02.920Z,16.58
2022-12-04T11:51:53.995Z,18.45
2022-12-04T11:54:47.800Z,17.25
2022-12-04T11:57:38.267Z,17.30
2022-12-04T12:00:19.613Z,18.83
2022-12-04T12:03:23.079Z,17.42
2022-12-04T12:06:18.836Z,17.77
2022-12-04T12:09:01.176Z,21.55
2022-12-04T12:12:06.319Z,18.55
2022-12-04T12:14:51.324Z,18.88
2022-12-04T12:17:46.926Z,16.90
2022-12-04T12:20:21.776Z,18.75
2022-12-04T12:22:57.331Z,17.90
2022-12-04T12:25:52.276Z,19.00
2022-12-04T12:28:48.419Z,17.98
2022-12-04T12:31:37.927Z,17.05
2022-12-04T12:34:10.655Z,17.85
2022-12-04T12:36:43.950Z,17.70
2022-12-04T12:39:19.076Z,15.55
2022-12-04T12:41:59.359Z,19.85
2022-12-04T12:44:43.035Z,17.48
2022-12-04T12:47:17.095Z,17.70
2022-12-04T12:50:22.306Z,16.52
2022-12-04T12:52:51.623Z,15.65
2022-12-04T12:55:25.053Z,16.08
2022-12-04T12:58:11.997Z,16.80
2022-12-04T13:00:45.022Z,17.92
2022-12-04T13:03:35.006Z,15.30
2022-12-04T13:06:06.984Z,18.48
2022-12-04T13:08:49.328Z,17.08
2022-12-04T13:11:22.408Z,15.23
2022-12-04T13:13:54.553Z,16.98
2022-12-04T13:16:33.856Z,17.35
2022-12-04T13:19:13.528Z,17.23
2022-12-04T13:21:45.815Z,18.60
2022-12-04T13:24:30.463Z,17.13
2022-12-04T13:27:16.250Z,17.10
2022-12-04T13:30:02.655Z,18.27
2022-12-04T13:33:06.577Z,17.80
2022-12-04T13:35:59.231Z,16.88
2022-12-04T13:38:57.854Z,16.02
2022-12-04T13:41:26.288Z,17.08
2022-12-04T13:43:53.897Z,18.75
2022-12-04T13:46:39.167Z,18.02
2022-12-04T13:49:17.851Z,16.90
2022-12-04T13:51:49.195Z,19.67
2022-12-04T13:54:15.656Z,20.33
2022-12-04T13:56:44.747Z,17.55
2022-12-04T13:59:30.977Z,16.73
2022-12-04T14:02:07.955Z,15.57
2022-12-04T14:05:02.612Z,17.27
2022-12-04T14:07:37.256Z,17.45
2022-12-04T14:10:14.677Z,17.48
2022-12-04T14:12:49.438Z,15.85
2022-12-04T14:15:25.675Z,15.73
2022-12-04T14:18:10.740Z,16.50
2022-12-04T14:20:38.869Z,16.90
2022-12-04T14:23:19.886Z,17.65
2022-12-04T14:25:46.587Z,16.95
2022-12-04T14:28:14.821Z,18.17
2022-12-04T14:30:44.125Z,16.30
2022-12-04T14:33:20.482Z,16.92
2022-12-04T14:36:02.672Z,19.20
2022-12-04T14:38:29.663Z,16.67
2022-12-04T14:40:58.293Z,18.23
2022-12-04T14:43:28.365Z,17.20
2022-12-04T14:45:58.220Z,18.02
2022-12-04T14:48:40.084Z,17.67
2022-12-04T14:51:18.710Z,17.02
2022-12-04T14:54:01.514Z,19.23
2022-12-04T14:56:57.013Z,17.83
2022-12-04T14:59:40.338Z,16.85
2022-12-04T15:02:18.795Z,17.10
2022-12-04T15:04:48.215Z,15.73
2022-12-04T15:07:26.171Z,17.77
2022-12-04T15:10:17.468Z,17.50
2022-12-04T15:12:54.703Z,17.52
2022-12-04T15:18:02.649Z,17.77
2022-12-04T15:20:38.660Z,17.80
2022-12-04T15:23:06.664Z,16.17
2022-12-04T15:25:56.778Z,16.23
2022-12-04T15:28:31.901Z,26.08
2022-12-04T15:31:02.485Z,35.85
2022-12-04T15:33:34.535Z,52.40
2022-12-04T15:36:07.143Z,39.35
2022-12-04T15:38:35.119Z,30.70
2022-12-04T15:41:01.949Z,27.42
2022-12-04T15:43:38.945Z,26.83
2022-12-04T15:48:48.206Z,23.30
2022-12-04T15:51:18.879Z,24.00
2022-12-04T15:53:46.774Z,20.92
2022-12-04T15:56:19.801Z,25.30
2022-12-04T15:59:01.675Z,23.20
2022-12-04T16:01:38.935Z,24.30
2022-12-04T16:04:05.513Z,20.75
2022-12-04T16:06:34.885Z,20.35
2022-12-04T16:09:25.615Z,20.15
2022-12-04T16:12:00.367Z,23.60
2022-12-04T16:14:27.282Z,21.90
2022-12-04T16:16:58.084Z,21.67
2022-12-04T16:19:39.323Z,21.48
2022-12-04T16:22:13.802Z,20.13
2022-12-04T16:24:40.411Z,23.65
2022-12-04T16:27:12.604Z,21.40
2022-12-04T16:29:39.269Z,23.83
2022-12-04T16:32:05.932Z,22.85
2022-12-04T16:34:32.600Z,23.15
2022-12-04T16:36:59.243Z,22.08
2022-12-04T16:39:25.828Z,20.80
2022-12-04T16:41:52.356Z,22.15
2022-12-04T16:44:18.989Z,22.63
2022-12-04T16:46:45.643Z,21.42
2022-12-04T16:49:13.248Z,22.85
2022-12-04T16:51:46.728Z,22.58
2022-12-04T16:54:13.929Z,22.15
2022-12-04T16:56:40.935Z,23.00
2022-12-04T16:59:11.929Z,25.85
2022-12-04T17:01:44.056Z,27.58
2022-12-04T17:04:10.817Z,25.95
2022-12-04T17:06:37.580Z,24.88
2022-12-04T17:09:04.679Z,26.65
2022-12-04T17:11:31.325Z,25.00
2022-12-04T17:13:57.976Z,24.13
2022-12-04T17:16:28.956Z,22.27
2022-12-04T17:18:55.514Z,23.13
2022-12-04T17:23:48.613Z,23.63
2022-12-04T17:26:15.291Z,23.15
2022-12-04T17:28:42.003Z,23.73
2022-12-04T17:31:20.462Z,21.48
2022-12-04T17:33:47.368Z,24.55
2022-12-04T17:36:17.284Z,23.35
2022-12-04T17:38:44.530Z,24.35
2022-12-04T17:41:16.714Z,22.42
2022-12-04T17:43:43.875Z,21.55
2022-12-04T17:46:13.039Z,23.05
2022-12-04T17:48:39.989Z,22.52
2022-12-04T17:51:12.541Z,24.40
2022-12-04T17:53:39.653Z,23.08
2022-12-04T17:56:08.938Z,23.75
2022-12-04T17:58:35.985Z,22.83
2022-12-04T18:01:07.962Z,21.25
2022-12-04T18:03:35.142Z,23.15
2022-12-04T18:06:14.623Z,23.20
2022-12-04T18:08:44.047Z,25.23
2022-12-04T18:11:14.996Z,27.42
2022-12-04T18:13:41.665Z,33.70
2022-12-04T18:16:10.459Z,28.70
2022-12-04T18:18:37.665Z,26.50
2022-12-04T18:21:07.197Z,51.90
2022-12-04T18:23:34.725Z,95.25
2022-12-04T18:26:01.679Z,83.50
2022-12-04T18:28:30.303Z,59.13
2022-12-04T18:31:02.076Z,38.47
2022-12-04T18:33:36.372Z,28.75
2022-12-04T18:36:04.236Z,26.70
2022-12-04T18:38:32.078Z,25.73
2022-12-04T18:41:03.903Z,24.67
2022-12-04T18:43:34.010Z,24.17
2022-12-04T18:46:07.135Z,27.70
2022-12-04T18:48:35.091Z,25.85
2022-12-04T18:51:01.627Z,24.05
2022-12-04T18:53:28.297Z,24.33
2022-12-04T18:55:54.806Z,26.00
2022-12-04T19:00:51.726Z,24.10
2022-12-04T19:03:18.467Z,26.40
2022-12-04T19:05:51.581Z,27.88
2022-12-04T19:08:18.331Z,26.67
2022-12-04T19:10:44.929Z,26.90
2022-12-04T19:15:44.730Z,26.77
2022-12-04T19:18:11.435Z,29.55
2022-12-04T19:20:42.347Z,25.92
2022-12-04T19:23:08.850Z,27.63
2022-12-04T19:28:03.051Z,31.42
2022-12-04T19:30:29.996Z,30.90
2022-12-04T19:32:56.953Z,30.73
2022-12-04T19:35:23.426Z,32.13
2022-12-04T19:40:20.415Z,29.33
2022-12-04T19:42:46.919Z,31.92
2022-12-04T19:47:40.058Z,29.37
2022-12-04T19:52:33.637Z,29.90
2022-12-04T19:55:00.167Z,32.13
2022-12-04T19:57:26.799Z,33.28
2022-12-04T19:59:53.408Z,29.95
2022-12-04T20:02:20.037Z,29.88
2022-12-04T20:04:46.607Z,29.30
2022-12-04T20:09:39.559Z,27.35
2022-12-04T20:12:06.339Z,29.58
2022-12-04T20:14:32.879Z,27.33
2022-12-04T20:17:01.586Z,27.73
2022-12-04T20:19:28.506Z,28.58
2022-12-04T20:21:59.266Z,25.70
2022-12-04T20:24:26.143Z,27.10
2022-12-04T20:26:52.667Z,26.65
2022-12-04T20:31:46.691Z,26.52
2022-12-04T20:34:16.162Z,26.20
2022-12-04T20:36:47.065Z,29.42
2022-12-04T20:39:15.215Z,29.58
2022-12-04T20:41:42.061Z,29.05
2022-12-04T20:44:12.462Z,27.25
2022-12-04T20:46:39.607Z,25.52
2022-12-04T20:49:10.123Z,27.70
2022-12-04T20:51:41.506Z,32.58
2022-12-04T20:54:10.666Z,35.03
2022-12-04T20:56:37.757Z,33.47
2022-12-04T20:59:07.683Z,33.17
2022-12-04T21:01:35.125Z,34.00
2022-12-04T21:04:02.951Z,35.97
2022-12-04T21:06:38.158Z,34.65
2022-12-04T21:09:07.958Z,44.08
2022-12-04T21:11:38.719Z,33.78
2022-12-04T21:14:26.903Z,32.20
2022-12-04T21:16:53.478Z,30.67
2022-12-04T21:19:21.723Z,32.40
2022-12-04T21:21:50.330Z,31.13
2022-12-04T21:24:19.776Z,29.52
2022-12-04T21:26:47.127Z,33.25
2022-12-04T21:29:14.980Z,32.67
2022-12-04T21:31:42.099Z,30.40
2022-12-04T21:34:11.946Z,30.70
2022-12-04T21:36:38.618Z,31.88
2022-12-04T21:39:06.016Z,30.75
2022-12-04T21:41:51.081Z,29.90
2022-12-04T21:44:19.842Z,30.55
2022-12-04T21:46:47.259Z,29.67
2022-12-04T21:49:14.748Z,28.98
2022-12-04T21:51:58.410Z,28.33
2022-12-04T21:54:27.280Z,27.75
2022-12-04T21:56:54.073Z,36.67
2022-12-04T21:59:20.642Z,33.83
2022-12-04T22:01:47.212Z,29.33
2022-12-04T22:04:13.857Z,28.75
2022-12-04T22:06:40.404Z,25.70
2022-12-04T22:09:09.769Z,26.73
2022-12-04T22:11:37.503Z,24.85
2022-12-04T22:14:04.608Z,23.17
2022-12-04T22:16:32.835Z,26.25
2022-12-04T22:19:01.305Z,23.80
2022-12-04T22:21:28.568Z,24.30
2022-12-04T22:23:57.497Z,23.92
2022-12-04T22:26:24.935Z,22.88
2022-12-04T22:28:52.011Z,20.23
2022-12-04T22:31:20.981Z,22.17
2022-12-04T22:33:49.126Z,21.67
2022-12-04T22:36:18.725Z,20.65
2022-12-04T22:39:08.018Z,19.17
2022-12-04T22:41:32.443Z,20.27
2022-12-04T22:43:58.901Z,20.38
2022-12-04T22:48:52.002Z,22.35
2022-12-04T22:51:22.490Z,19.20
2022-12-04T22:53:51.895Z,19.33
2022-12-04T22:56:29.519Z,19.92
2022-12-04T22:58:58.038Z,19.63
2022-12-04T23:18:23.931Z,20.98
2022-12-04T23:20:50.462Z,20.38
2022-12-04T23:23:16.993Z,19.98
2022-12-04T23:25:43.495Z,19.77
2022-12-04T23:28:10.038Z,18.13
2022-12-04T23:30:36.861Z,19.10
2022-12-04T23:33:03.431Z,17.73
2022-12-04T23:35:30.439Z,18.40
2022-12-04T23:37:56.978Z,19.75
2022-12-04T23:40:23.589Z,18.52
2022-12-04T23:42:50.119Z,19.13
2022-12-04T23:45:16.681Z,20.25
2022-12-04T23:47:43.619Z,18.73
2022-12-04T23:50:10.324Z,16.83
2022-12-04T23:52:36.923Z,18.08
2022-12-04T23:55:03.782Z,18.10
2022-12-04T23:57:30.370Z,17.25
2022-12-04T23:59:57.107Z,15.98
